Time;durP1;ratioP1;P1;durP2;ratioP2;P2;SDS_P1;SDS_P2;PMS_P1;PMS_P2;Temp;Humidity;BMP_temperature;BMP_pressure;BME280_temperature;BME280_humidity;BME280_pressure;Samples;Min_cycle;Max_cycle;Signal;HPM_P1;HPM_P2
2022/04/02 00:01:12;;;;;;;1.92;1.17;;;;;;;;;;10514842;28;20266;-73
2022/04/02 00:06:12;;;;;;;6.97;1.20;;;;;;;;;;10514237;28;20107;-73
2022/04/02 00:11:12;;;;;;;6.22;1.00;;;;;;;;;;10514344;28;20024;-73
2022/04/02 00:16:13;;;;;;;2.22;0.65;;;;;;;;;;10513841;28;20026;-74
2022/04/02 00:21:13;;;;;;;5.00;0.77;;;;;;;;;;10514214;28;20026;-71
2022/04/02 00:26:19;;;;;;;2.60;0.82;;;;;;;;;;10532133;28;20259;-73
2022/04/02 00:31:20;;;;;;;4.00;0.93;;;;;;;;;;10513504;28;20020;-70
2022/04/02 00:36:23;;;;;;;6.65;1.02;;;;;;;;;;10531377;28;20472;-76
2022/04/02 00:41:23;;;;;;;1.13;0.70;;;;;;;;;;10513974;28;20470;-71
2022/04/02 00:46:24;;;;;;;0.60;0.60;;;;;;;;;;10513092;28;20056;-75
2022/04/02 00:51:24;;;;;;;1.03;0.70;;;;;;;;;;10496421;28;20023;-77
2022/04/02 00:56:25;;;;;;;0.73;0.60;;;;;;;;;;10512895;28;20015;-74
2022/04/02 01:01:25;;;;;;;2.30;0.90;;;;;;;;;;10512606;28;20125;-75
2022/04/02 01:06:26;;;;;;;1.73;1.00;;;;;;;;;;10512061;28;20413;-72
2022/04/02 01:11:43;;;;;;;0.75;0.65;;;;;;;;;;10530594;28;20020;-70
2022/04/02 01:16:43;;;;;;;1.48;0.70;;;;;;;;;;10512056;28;20024;-75
2022/04/02 01:21:47;;;;;;;2.55;1.35;;;;;;;;;;10512085;28;20016;-72
2022/04/02 01:26:47;;;;;;;3.85;1.20;;;;;;;;;;10512182;28;20127;-71
2022/04/02 01:31:48;;;;;;;1.07;0.60;;;;;;;;;;10511789;28;20024;-69
2022/04/02 01:36:48;;;;;;;3.50;2.17;;;;;;;;;;10529787;28;20286;-70
2022/04/02 01:41:48;;;;;;;1.10;0.93;;;;;;;;;;10530111;28;20016;-71
2022/04/02 01:46:49;;;;;;;1.67;0.80;;;;;;;;;;10494644;28;20063;-72
2022/04/02 01:51:49;;;;;;;2.10;1.65;;;;;;;;;;10511645;28;20097;-74
2022/04/02 01:56:49;;;;;;;1.50;0.80;;;;;;;;;;10511030;28;20029;-70
2022/04/02 02:01:49;;;;;;;1.27;0.60;;;;;;;;;;10531565;28;20095;-74
2022/04/02 02:06:50;;;;;;;1.73;0.90;;;;;;;;;;10519475;28;20024;-73
2022/04/02 02:11:50;;;;;;;1.23;0.60;;;;;;;;;;10519062;28;20119;-71
2022/04/02 02:16:50;;;;;;;2.70;1.10;;;;;;;;;;10518582;28;20492;-72
2022/04/02 02:21:51;;;;;;;3.20;1.20;;;;;;;;;;10518849;28;20547;-71
2022/04/02 02:26:51;;;;;;;0.65;0.65;;;;;;;;;;10518794;28;20034;-78
2022/04/02 02:31:51;;;;;;;8.37;0.70;;;;;;;;;;10517519;28;20451;-73
2022/04/02 02:36:52;;;;;;;0.77;0.45;;;;;;;;;;10536459;28;20359;-69
2022/04/02 02:41:53;;;;;;;2.35;0.73;;;;;;;;;;10538809;28;20560;-70
2022/04/02 02:46:53;;;;;;;2.07;0.70;;;;;;;;;;10535644;28;20051;-71
2022/04/02 02:51:53;;;;;;;3.35;0.70;;;;;;;;;;10517399;28;20085;-71
2022/04/02 02:56:54;;;;;;;1.42;0.50;;;;;;;;;;10517384;28;20028;-71
2022/04/02 03:01:54;;;;;;;1.38;0.50;;;;;;;;;;10517064;28;20017;-73
2022/04/02 03:06:55;;;;;;;1.23;0.60;;;;;;;;;;10517004;28;20020;-74
2022/04/02 03:11:56;;;;;;;0.83;0.43;;;;;;;;;;10515979;28;20012;-73
2022/04/02 03:16:58;;;;;;;1.27;0.70;;;;;;;;;;10515464;28;20609;-75
2022/04/02 03:21:59;;;;;;;0.70;0.63;;;;;;;;;;10516367;28;20023;-75
2022/04/02 03:27:00;;;;;;;2.33;0.73;;;;;;;;;;10548252;28;20061;-71
2022/04/02 03:32:00;;;;;;;1.37;0.57;;;;;;;;;;10515031;28;20028;-71
2022/04/02 03:37:01;;;;;;;2.10;1.00;;;;;;;;;;10533898;28;20111;-79
2022/04/02 03:42:03;;;;;;;2.40;0.93;;;;;;;;;;10515120;28;20047;-70
2022/04/02 03:47:09;;;;;;;2.90;0.90;;;;;;;;;;10514831;28;20055;-75
2022/04/02 03:52:10;;;;;;;1.33;0.80;;;;;;;;;;10515053;28;20067;-73
2022/04/02 03:57:12;;;;;;;0.63;0.63;;;;;;;;;;10514724;28;20127;-74
2022/04/02 04:02:13;;;;;;;4.68;0.80;;;;;;;;;;10514609;28;20021;-71
2022/04/02 04:07:14;;;;;;;4.03;0.90;;;;;;;;;;10532645;28;20035;-72
2022/04/02 04:12:17;;;;;;;5.63;0.80;;;;;;;;;;10532041;28;20020;-70
2022/04/02 04:17:17;;;;;;;2.08;1.38;;;;;;;;;;10531775;28;20131;-75
2022/04/02 04:22:18;;;;;;;4.07;1.25;;;;;;;;;;10513892;28;20474;-76
2022/04/02 04:27:18;;;;;;;1.58;1.13;;;;;;;;;;10513169;28;20052;-70
2022/04/02 04:32:18;;;;;;;3.90;3.45;;;;;;;;;;10531543;28;20024;-72
2022/04/02 04:37:19;;;;;;;2.22;1.10;;;;;;;;;;10531501;28;20978;-73
2022/04/02 04:42:21;;;;;;;1.67;0.85;;;;;;;;;;10530757;28;20112;-69
2022/04/02 04:47:21;;;;;;;2.30;1.00;;;;;;;;;;10513428;28;20056;-72
2022/04/02 04:52:22;;;;;;;3.75;1.02;;;;;;;;;;10512737;28;20482;-73
2022/04/02 04:57:22;;;;;;;1.50;1.17;;;;;;;;;;10512038;28;20028;-70
2022/04/02 05:02:22;;;;;;;1.48;1.17;;;;;;;;;;10530666;28;20031;-74
2022/04/02 05:07:23;;;;;;;3.28;2.00;;;;;;;;;;10503869;28;20028;-72
2022/04/02 05:12:24;;;;;;;1.90;0.70;;;;;;;;;;10470428;28;20310;-73
2022/04/02 05:17:24;;;;;;;2.23;0.90;;;;;;;;;;10470393;28;20028;-76
2022/04/02 05:22:24;;;;;;;3.60;1.25;;;;;;;;;;10471070;28;20024;-73
2022/04/02 05:27:24;;;;;;;4.85;1.17;;;;;;;;;;10470547;28;20024;-77
2022/04/02 05:32:25;;;;;;;1.88;0.77;;;;;;;;;;10469925;28;20017;-74
2022/04/02 05:37:25;;;;;;;3.50;1.10;;;;;;;;;;10473253;28;20028;-73
2022/04/02 05:42:26;;;;;;;4.03;0.63;;;;;;;;;;10500129;28;20072;-74
2022/04/02 05:47:26;;;;;;;3.60;0.53;;;;;;;;;;10488593;28;20472;-71
2022/04/02 05:52:27;;;;;;;0.65;0.22;;;;;;;;;;10496119;28;20454;-73
2022/04/02 05:57:28;;;;;;;3.05;0.60;;;;;;;;;;10495757;28;20036;-78
2022/04/02 06:02:28;;;;;;;4.15;0.40;;;;;;;;;;10477289;28;20020;-74
2022/04/02 06:07:28;;;;;;;0.32;0.17;;;;;;;;;;10477553;28;20025;-72
2022/04/02 06:12:29;;;;;;;1.27;0.30;;;;;;;;;;10477446;28;20391;-73
2022/04/02 06:17:29;;;;;;;0.20;0.20;;;;;;;;;;10495137;28;20609;-78
2022/04/02 06:22:30;;;;;;;0.75;0.47;;;;;;;;;;10476534;28;20443;-73
2022/04/02 06:27:30;;;;;;;0.30;0.22;;;;;;;;;;10494648;28;20073;-76
2022/04/02 06:32:30;;;;;;;3.67;0.57;;;;;;;;;;10485292;28;20051;-72
2022/04/02 06:37:34;;;;;;;0.30;0.30;;;;;;;;;;10492397;28;20282;-75
2022/04/02 06:42:35;;;;;;;11.10;0.95;;;;;;;;;;10475929;28;20082;-72
2022/04/02 06:47:35;;;;;;;3.00;0.88;;;;;;;;;;10491667;28;20057;-74
2022/04/02 06:52:36;;;;;;;4.32;0.90;;;;;;;;;;10513736;28;20386;-72
2022/04/02 06:57:43;;;;;;;3.83;0.60;;;;;;;;;;10517424;28;20054;-74
2022/04/02 07:02:44;;;;;;;3.20;0.90;;;;;;;;;;10516379;28;20021;-71
2022/04/02 07:07:49;;;;;;;8.52;1.40;;;;;;;;;;10516424;28;20512;-75
2022/04/02 07:12:49;;;;;;;2.17;1.20;;;;;;;;;;10481054;28;20035;-71
2022/04/02 07:17:49;;;;;;;1.73;0.98;;;;;;;;;;10503581;28;20027;-74
2022/04/02 07:22:50;;;;;;;2.13;1.15;;;;;;;;;;10515960;28;20024;-71
2022/04/02 07:27:53;;;;;;;2.13;0.57;;;;;;;;;;10515494;28;20024;-71
2022/04/02 07:32:53;;;;;;;2.42;1.23;;;;;;;;;;10515329;28;20028;-72
2022/04/02 07:37:56;;;;;;;2.07;1.10;;;;;;;;;;10515346;28;20057;-72
2022/04/02 07:43:16;;;;;;;6.28;0.88;;;;;;;;;;10480235;28;20028;-76
2022/04/02 07:48:17;;;;;;;5.60;1.30;;;;;;;;;;10473483;28;20032;-71
2022/04/02 07:53:21;;;;;;;3.65;1.00;;;;;;;;;;10473061;28;20020;-72
2022/04/02 07:58:26;;;;;;;6.20;1.83;;;;;;;;;;10484949;28;20047;-72
2022/04/02 08:03:28;;;;;;;3.85;1.25;;;;;;;;;;10496868;28;20029;-74
2022/04/02 08:08:29;;;;;;;2.08;0.93;;;;;;;;;;10471353;28;20051;-73
2022/04/02 08:13:30;;;;;;;4.95;1.83;;;;;;;;;;10473305;28;20033;-80
2022/04/02 08:18:30;;;;;;;1.40;0.80;;;;;;;;;;10472508;28;20025;-73
2022/04/02 08:23:31;;;;;;;7.50;1.50;;;;;;;;;;10504195;28;20382;-72
2022/04/02 08:28:37;;;;;;;1.98;0.52;;;;;;;;;;10490856;28;20108;-71
2022/04/02 08:33:51;;;;;;;1.02;0.63;;;;;;;;;;10472145;28;20020;-72
2022/04/02 08:38:58;;;;;;;5.03;1.00;;;;;;;;;;10471443;28;20024;-73
2022/04/02 08:44:04;;;;;;;1.30;0.70;;;;;;;;;;10468553;28;20055;-71
2022/04/02 08:49:21;;;;;;;0.93;0.75;;;;;;;;;;10512139;28;20110;-72
2022/04/02 08:54:21;;;;;;;2.75;0.90;;;;;;;;;;10530133;28;20027;-72
2022/04/02 08:59:41;;;;;;;1.75;1.13;;;;;;;;;;10530465;28;20031;-71
2022/04/02 09:04:42;;;;;;;3.08;1.23;;;;;;;;;;10511588;28;20040;-73
2022/04/02 09:09:51;;;;;;;2.20;1.00;;;;;;;;;;10512072;28;20057;-73
2022/04/02 09:15:00;;;;;;;1.40;0.85;;;;;;;;;;10488591;28;20073;-71
2022/04/02 09:20:08;;;;;;;1.25;0.73;;;;;;;;;;10470228;28;20111;-75
2022/04/02 09:25:35;;;;;;;2.03;0.77;;;;;;;;;;10488491;28;20024;-77
2022/04/02 09:30:38;;;;;;;10.85;1.17;;;;;;;;;;10529465;28;20024;-78
2022/04/02 09:35:48;;;;;;;1.10;1.00;;;;;;;;;;10510639;28;20486;-77
2022/04/02 09:40:51;;;;;;;1.58;0.82;;;;;;;;;;10511401;28;20069;-77
2022/04/02 09:45:57;;;;;;;8.10;0.65;;;;;;;;;;10510476;28;20063;-74
2022/04/02 09:50:59;;;;;;;2.20;0.70;;;;;;;;;;10529174;28;20024;-75
2022/04/02 09:56:18;;;;;;;4.03;0.68;;;;;;;;;;10505951;28;20032;-76
2022/04/02 10:01:26;;;;;;;1.27;0.73;;;;;;;;;;10506460;28;20016;-73
2022/04/02 10:06:28;;;;;;;5.55;0.75;;;;;;;;;;10523407;28;20024;-72
2022/04/02 10:11:30;;;;;;;1.08;0.80;;;;;;;;;;10507714;28;20393;-75
2022/04/02 10:16:30;;;;;;;1.35;0.40;;;;;;;;;;10507999;28;20027;-75
2022/04/02 10:21:35;;;;;;;3.25;0.93;;;;;;;;;;10525825;28;20034;-71
2022/04/02 10:26:37;;;;;;;2.15;0.47;;;;;;;;;;10517169;28;20020;-73
2022/04/02 10:31:42;;;;;;;1.08;0.35;;;;;;;;;;10536285;28;20032;-74
2022/04/02 10:37:05;;;;;;;1.13;0.52;;;;;;;;;;10517819;28;20115;-75
2022/04/02 10:42:08;;;;;;;7.55;0.30;;;;;;;;;;10509278;28;20070;-75
2022/04/02 10:47:12;;;;;;;0.63;0.30;;;;;;;;;;10508964;28;20056;-72
2022/04/02 10:52:13;;;;;;;1.20;0.40;;;;;;;;;;10517254;28;20098;-77
2022/04/02 10:57:14;;;;;;;0.47;0.30;;;;;;;;;;10516813;28;20040;-70
2022/04/02 11:02:26;;;;;;;1.38;0.35;;;;;;;;;;10487846;28;20028;-76
2022/04/02 11:07:28;;;;;;;1.73;0.38;;;;;;;;;;10486813;28;20035;-70
2022/04/02 11:12:29;;;;;;;1.02;0.90;;;;;;;;;;10532850;28;20024;-71
2022/04/02 11:17:34;;;;;;;1.10;1.00;;;;;;;;;;10515856;28;20569;-70
2022/04/02 11:22:49;;;;;;;0.90;0.90;;;;;;;;;;10534413;28;20020;-73
2022/04/02 11:27:50;;;;;;;1.77;0.85;;;;;;;;;;10515635;28;20024;-71
2022/04/02 11:32:51;;;;;;;2.15;1.13;;;;;;;;;;10515211;28;20446;-70
2022/04/02 11:38:10;;;;;;;1.90;1.10;;;;;;;;;;10513884;28;20149;-70
2022/04/02 11:43:13;;;;;;;0.90;0.90;;;;;;;;;;10514879;28;20382;-70
2022/04/02 11:48:14;;;;;;;0.70;0.70;;;;;;;;;;10511949;28;20155;-70
2022/04/02 11:53:14;;;;;;;1.08;0.70;;;;;;;;;;10491065;28;20485;-70
2022/04/02 11:58:15;;;;;;;4.80;2.13;;;;;;;;;;10491371;28;20158;-71
2022/04/02 12:03:22;;;;;;;4.30;1.73;;;;;;;;;;10472893;28;20269;-72
2022/04/02 12:08:26;;;;;;;2.50;1.23;;;;;;;;;;10472833;28;20032;-70
2022/04/02 12:13:27;;;;;;;5.63;1.42;;;;;;;;;;10472890;28;20060;-70
2022/04/02 12:18:28;;;;;;;4.47;1.57;;;;;;;;;;10472385;28;20077;-75
2022/04/02 12:23:29;;;;;;;2.20;1.48;;;;;;;;;;10472277;28;20781;-69
2022/04/02 12:28:29;;;;;;;2.63;1.63;;;;;;;;;;10471936;28;20024;-70
2022/04/02 12:33:30;;;;;;;4.18;1.55;;;;;;;;;;10471429;28;20031;-70
2022/04/02 12:38:31;;;;;;;7.80;1.58;;;;;;;;;;10471714;28;20410;-70
2022/04/02 12:43:37;;;;;;;2.72;0.98;;;;;;;;;;10454941;28;20123;-75
2022/04/02 12:48:42;;;;;;;5.75;1.50;;;;;;;;;;10454424;28;20047;-70
2022/04/02 12:53:46;;;;;;;3.85;1.40;;;;;;;;;;10454338;28;20123;-72
2022/04/02 12:58:48;;;;;;;1.83;0.90;;;;;;;;;;10470880;28;20119;-72
2022/04/02 13:03:59;;;;;;;1.38;0.82;;;;;;;;;;10497236;28;20486;-72
2022/04/02 13:09:15;;;;;;;0.57;0.40;;;;;;;;;;10483726;28;20020;-70
2022/04/02 13:14:17;;;;;;;3.55;0.70;;;;;;;;;;10511855;28;20046;-72
2022/04/02 13:24:39;;;;;;;3.85;0.70;;;;;;;;;;10530572;28;20032;-74
2022/04/02 13:30:03;;;;;;;2.08;0.93;;;;;;;;;;10511616;28;20028;-70
2022/04/02 13:35:07;;;;;;;2.58;1.55;;;;;;;;;;10521045;28;20498;-74
2022/04/02 13:40:10;;;;;;;1.48;0.88;;;;;;;;;;10511268;28;20020;-71
2022/04/02 13:45:11;;;;;;;1.02;0.82;;;;;;;;;;10529061;28;20092;-71
2022/04/02 13:50:13;;;;;;;2.15;1.45;;;;;;;;;;10529122;28;20119;-71
2022/04/02 13:55:15;;;;;;;3.47;1.63;;;;;;;;;;10499817;28;20032;-72
2022/04/02 14:00:15;;;;;;;1.65;1.00;;;;;;;;;;10475273;28;20043;-71
2022/04/02 14:05:30;;;;;;;1.27;0.90;;;;;;;;;;10477151;28;20017;-71
2022/04/02 14:10:34;;;;;;;3.80;1.02;;;;;;;;;;10497295;28;20430;-71
2022/04/02 14:15:34;;;;;;;1.67;1.10;;;;;;;;;;10518499;28;20103;-73
2022/04/02 14:20:34;;;;;;;3.13;1.70;;;;;;;;;;10518175;28;20141;-75
2022/04/02 14:25:47;;;;;;;1.42;1.02;;;;;;;;;;10517814;28;20099;-70
2022/04/02 14:31:06;;;;;;;2.88;1.23;;;;;;;;;;10503296;28;20074;-70
2022/04/02 14:36:09;;;;;;;2.55;1.30;;;;;;;;;;10494460;28;20021;-70
2022/04/02 14:41:28;;;;;;;2.83;1.70;;;;;;;;;;10475541;28;20025;-78
2022/04/02 14:46:52;;;;;;;4.43;1.20;;;;;;;;;;10493300;28;20577;-68
2022/04/02 14:52:17;;;;;;;2.22;0.80;;;;;;;;;;10464890;28;20544;-74
2022/04/02 14:57:36;;;;;;;2.33;0.77;;;;;;;;;;10466324;28;20024;-70
2022/04/02 15:02:36;;;;;;;1.90;0.70;;;;;;;;;;10474780;28;20027;-74
2022/04/02 15:08:03;;;;;;;2.65;1.75;;;;;;;;;;10474435;28;20038;-74
2022/04/02 15:13:06;;;;;;;3.15;1.88;;;;;;;;;;10452159;28;20082;-72
2022/04/02 15:18:08;;;;;;;6.78;2.40;;;;;;;;;;10492616;28;20021;-70
2022/04/02 15:23:09;;;;;;;4.65;2.10;;;;;;;;;;10474065;28;20435;-71
2022/04/02 15:28:16;;;;;;;4.82;1.65;;;;;;;;;;10473644;28;20639;-70
2022/04/02 15:33:19;;;;;;;2.65;1.27;;;;;;;;;;10475767;28;20025;-74
2022/04/02 15:38:26;;;;;;;5.13;1.70;;;;;;;;;;10491608;28;20023;-71
2022/04/02 15:48:56;;;;;;;0.35;0.32;;;;;;;;;;10532609;23;20481;-73
2022/04/02 15:53:56;;;;;;;;;;;;;;;;;;10490803;28;20126;-74
2022/04/02 15:59:10;;;;;;;0.47;0.40;;;;;;;;;;10491018;28;20054;-76
2022/04/02 16:04:16;;;;;;;2.20;1.10;;;;;;;;;;10493477;28;20052;-74
2022/04/02 16:09:19;;;;;;;1.27;0.85;;;;;;;;;;10488934;28;20095;-74
2022/04/02 16:14:23;;;;;;;2.10;0.60;;;;;;;;;;10488913;28;20527;-74
2022/04/02 16:19:43;;;;;;;4.22;2.10;;;;;;;;;;10488244;28;20075;-75
2022/04/02 16:24:52;;;;;;;5.22;2.22;;;;;;;;;;10490309;28;20024;-70
2022/04/02 16:29:56;;;;;;;3.53;2.33;;;;;;;;;;10482532;28;20031;-76
2022/04/02 16:35:07;;;;;;;7.63;3.08;;;;;;;;;;10529788;28;20024;-71
2022/04/02 16:40:11;;;;;;;2.75;1.65;;;;;;;;;;10530318;28;20511;-77
2022/04/02 16:45:12;;;;;;;3.88;2.25;;;;;;;;;;10529604;28;20086;-71
2022/04/02 16:50:12;;;;;;;3.53;1.80;;;;;;;;;;10529342;28;20061;-72
2022/04/02 16:55:16;;;;;;;3.55;2.30;;;;;;;;;;10529095;28;20028;-76
2022/04/02 17:00:17;;;;;;;4.90;3.10;;;;;;;;;;10528929;28;20039;-74
2022/04/02 17:05:25;;;;;;;4.78;3.03;;;;;;;;;;10533576;28;20023;-70
2022/04/02 17:10:26;;;;;;;6.35;3.35;;;;;;;;;;10539107;28;20043;-69
2022/04/02 17:15:27;;;;;;;5.95;3.15;;;;;;;;;;10528417;28;20039;-73
2022/04/02 17:20:29;;;;;;;4.35;2.30;;;;;;;;;;10528348;28;20024;-71
2022/04/02 17:25:30;;;;;;;4.97;2.67;;;;;;;;;;10528193;28;20081;-70
2022/04/02 17:30:34;;;;;;;5.35;2.83;;;;;;;;;;10529039;28;20032;-71
2022/04/02 17:35:36;;;;;;;6.90;2.70;;;;;;;;;;10526104;28;20493;-72
2022/04/02 17:40:36;;;;;;;5.90;3.28;;;;;;;;;;10526292;28;20035;-73
2022/04/02 17:45:40;;;;;;;7.85;2.85;;;;;;;;;;10526146;28;20106;-73
2022/04/02 17:50:56;;;;;;;4.68;2.47;;;;;;;;;;10526657;28;20024;-75
2022/04/02 17:56:17;;;;;;;3.95;2.47;;;;;;;;;;10526370;28;20020;-71
2022/04/02 18:01:26;;;;;;;7.85;2.67;;;;;;;;;;10525100;28;20031;-74
2022/04/02 18:06:27;;;;;;;6.82;2.70;;;;;;;;;;10501060;28;20073;-71
2022/04/02 18:11:28;;;;;;;5.40;2.45;;;;;;;;;;10524924;28;20028;-72
2022/04/02 18:16:28;;;;;;;6.63;2.80;;;;;;;;;;10528841;28;20372;-74
2022/04/02 18:21:29;;;;;;;9.10;2.53;;;;;;;;;;10535883;28;20016;-74
2022/04/02 18:26:31;;;;;;;3.30;2.22;;;;;;;;;;10558049;27;20178;-73
2022/04/02 18:31:31;;;;;;;2.55;1.45;;;;;;;;;;10545913;28;20027;-70
2022/04/02 18:36:32;;;;;;;2.23;1.00;;;;;;;;;;10545508;28;20024;-74
2022/04/02 18:41:32;;;;;;;1.27;1.10;;;;;;;;;;10543275;28;20108;-75
2022/04/02 18:46:32;;;;;;;4.05;1.58;;;;;;;;;;10552418;28;20636;-70
2022/04/02 18:51:33;;;;;;;3.83;2.13;;;;;;;;;;10551098;28;20462;-72
2022/04/02 18:56:33;;;;;;;6.13;3.60;;;;;;;;;;10553571;28;20024;-72
2022/04/02 19:01:34;;;;;;;3.90;2.05;;;;;;;;;;10548016;28;20406;-71
2022/04/02 19:06:35;;;;;;;3.85;1.83;;;;;;;;;;10533888;28;20027;-73
2022/04/02 19:11:36;;;;;;;2.97;1.90;;;;;;;;;;10512138;28;20199;-70
2022/04/02 19:16:36;;;;;;;3.00;1.50;;;;;;;;;;10490646;28;20029;-72
2022/04/02 19:21:36;;;;;;;1.83;1.40;;;;;;;;;;10505950;28;20448;-73
2022/04/02 19:26:36;;;;;;;4.07;1.80;;;;;;;;;;10532485;28;20417;-71
2022/04/02 19:31:37;;;;;;;2.43;1.53;;;;;;;;;;10533568;28;20526;-71
2022/04/02 19:36:37;;;;;;;4.13;1.43;;;;;;;;;;10517452;28;20117;-70
2022/04/02 19:41:41;;;;;;;2.22;1.88;;;;;;;;;;10490500;28;20095;-73
2022/04/02 19:46:42;;;;;;;2.72;1.17;;;;;;;;;;10490250;28;20511;-74
2022/04/02 19:51:42;;;;;;;2.75;1.50;;;;;;;;;;10491251;28;20039;-74
2022/04/02 19:56:42;;;;;;;3.45;1.60;;;;;;;;;;10489014;28;20067;-70
2022/04/02 20:01:45;;;;;;;2.70;1.97;;;;;;;;;;10503491;28;20024;-71
2022/04/02 20:06:45;;;;;;;2.67;1.80;;;;;;;;;;10530640;28;20562;-70
2022/04/02 20:11:45;;;;;;;4.87;2.23;;;;;;;;;;10531393;28;20061;-70
2022/04/02 20:16:46;;;;;;;1.73;1.33;;;;;;;;;;10524995;28;20498;-69
2022/04/02 20:21:46;;;;;;;2.00;1.17;;;;;;;;;;10477207;28;20259;-73
2022/04/02 20:26:46;;;;;;;3.90;2.28;;;;;;;;;;10513687;28;20058;-74
2022/04/02 20:31:47;;;;;;;3.17;1.80;;;;;;;;;;10490261;28;20028;-75
2022/04/02 20:36:50;;;;;;;6.47;2.22;;;;;;;;;;10500924;28;20024;-69
2022/04/02 20:41:50;;;;;;;5.53;1.90;;;;;;;;;;10528721;28;20004;-74
2022/04/02 20:46:50;;;;;;;2.63;1.90;;;;;;;;;;10509917;28;20056;-70
2022/04/02 20:51:51;;;;;;;2.75;1.88;;;;;;;;;;10527541;28;20327;-69
2022/04/02 20:56:51;;;;;;;4.03;2.13;;;;;;;;;;10504754;28;20524;-69
2022/04/02 21:01:51;;;;;;;9.73;2.63;;;;;;;;;;10486727;28;20103;-71
2022/04/02 21:06:51;;;;;;;3.42;2.28;;;;;;;;;;10486576;28;20025;-69
2022/04/02 21:11:56;;;;;;;4.70;2.47;;;;;;;;;;10526802;28;20027;-73
2022/04/02 21:16:56;;;;;;;2.40;1.83;;;;;;;;;;10530046;28;20031;-71
2022/04/02 21:21:57;;;;;;;2.47;1.95;;;;;;;;;;10528412;28;20493;-73
2022/04/02 21:26:57;;;;;;;4.65;2.55;;;;;;;;;;10529518;28;20398;-71
2022/04/02 21:31:57;;;;;;;4.97;3.20;;;;;;;;;;10516306;28;20028;-70
2022/04/02 21:36:59;;;;;;;3.63;2.15;;;;;;;;;;10486486;28;20026;-69
2022/04/02 21:42:00;;;;;;;5.32;2.25;;;;;;;;;;10486452;28;20108;-70
2022/04/02 21:47:01;;;;;;;7.85;1.70;;;;;;;;;;10486133;28;20067;-71
2022/04/02 21:52:02;;;;;;;1.97;1.60;;;;;;;;;;10486013;28;20028;-70
2022/04/02 21:57:03;;;;;;;6.53;1.75;;;;;;;;;;10486089;28;20792;-70
2022/04/02 22:02:07;;;;;;;2.90;1.65;;;;;;;;;;10487369;28;20017;-74
2022/04/02 22:07:08;;;;;;;5.40;1.95;;;;;;;;;;10502541;28;20021;-69
2022/04/02 22:12:09;;;;;;;1.58;0.88;;;;;;;;;;10485912;28;20023;-72
2022/04/02 22:17:10;;;;;;;3.45;0.73;;;;;;;;;;10487035;28;20043;-71
2022/04/02 22:22:10;;;;;;;3.03;0.60;;;;;;;;;;10492915;28;20022;-72
2022/04/02 22:27:10;;;;;;;1.38;0.73;;;;;;;;;;10493028;28;20105;-71
2022/04/02 22:32:11;;;;;;;0.95;0.32;;;;;;;;;;10493031;28;20024;-70
2022/04/02 22:37:11;;;;;;;3.05;1.30;;;;;;;;;;10475868;28;20020;-69
2022/04/02 22:42:11;;;;;;;0.75;0.63;;;;;;;;;;10494103;28;20029;-70
2022/04/02 22:47:12;;;;;;;3.60;0.60;;;;;;;;;;10474233;28;20056;-73
2022/04/02 22:52:12;;;;;;;1.30;0.70;;;;;;;;;;10491521;28;20031;-71
2022/04/02 22:57:15;;;;;;;2.78;1.08;;;;;;;;;;10489653;28;20024;-76
2022/04/02 23:02:15;;;;;;;2.25;1.17;;;;;;;;;;10489907;28;20024;-71
2022/04/02 23:07:16;;;;;;;3.23;0.77;;;;;;;;;;10489736;28;20024;-73
2022/04/02 23:12:17;;;;;;;2.22;1.10;;;;;;;;;;10491127;28;20456;-70
2022/04/02 23:17:19;;;;;;;3.15;0.93;;;;;;;;;;10489450;28;20021;-70
2022/04/02 23:22:19;;;;;;;2.33;1.30;;;;;;;;;;10490554;28;20454;-70
2022/04/02 23:27:20;;;;;;;1.60;1.20;;;;;;;;;;10489063;28;20035;-74
2022/04/02 23:32:20;;;;;;;6.70;1.55;;;;;;;;;;10488580;28;20020;-76
2022/04/02 23:37:20;;;;;;;2.13;1.40;;;;;;;;;;10488520;28;20541;-70
2022/04/02 23:42:22;;;;;;;2.33;1.35;;;;;;;;;;10488205;28;20073;-67
2022/04/02 23:47:22;;;;;;;3.03;1.20;;;;;;;;;;10448447;28;1173157;-71
2022/04/02 23:52:22;;;;;;;2.20;1.40;;;;;;;;;;10491478;28;20393;-72
2022/04/02 23:57:23;;;;;;;4.22;1.73;;;;;;;;;;10489895;28;20025;-72
